Time;durP1;ratioP1;P1;durP2;ratioP2;P2;SDS_P1;SDS_P2;PMS_P1;PMS_P2;Temp;Humidity;BMP_temperature;BMP_pressure;BME280_temperature;BME280_humidity;BME280_pressure;Samples;Min_cycle;Max_cycle;Signal;HPM_P1;HPM_P2
2022/11/12 00:00:15;;;;;;;21.65;14.73;;;;;;;;;;5114855;28;20232;-67
2022/11/12 00:02:42;;;;;;;20.35;14.25;;;;;;;;;;5114443;28;20670;-67
2022/11/12 00:05:11;;;;;;;22.75;15.52;;;;;;;;;;5114470;28;20195;-67
2022/11/12 00:07:38;;;;;;;19.48;15.40;;;;;;;;;;5114857;28;20283;-67
2022/11/12 00:10:06;;;;;;;18.52;13.82;;;;;;;;;;5114709;28;20195;-67
2022/11/12 00:12:33;;;;;;;20.90;15.63;;;;;;;;;;5114850;28;20245;-68
2022/11/12 00:15:00;;;;;;;16.75;14.95;;;;;;;;;;5114600;28;20245;-67
2022/11/12 00:17:27;;;;;;;18.27;14.50;;;;;;;;;;5114134;28;20192;-68
2022/11/12 00:19:55;;;;;;;23.13;16.92;;;;;;;;;;5115261;28;20231;-68
2022/11/12 00:22:23;;;;;;;18.88;15.10;;;;;;;;;;5114214;28;20196;-68
2022/11/12 00:24:51;;;;;;;24.02;17.15;;;;;;;;;;5114143;28;20204;-68
2022/11/12 00:27:18;;;;;;;21.33;16.23;;;;;;;;;;5114037;28;20205;-68
2022/11/12 00:29:45;;;;;;;20.63;16.95;;;;;;;;;;5114303;28;20200;-67
2022/11/12 00:32:13;;;;;;;23.23;16.88;;;;;;;;;;5114257;28;20290;-67
2022/11/12 00:34:40;;;;;;;20.27;15.52;;;;;;;;;;5114599;28;20195;-67
2022/11/12 00:37:07;;;;;;;24.13;17.33;;;;;;;;;;5113882;28;20196;-68
2022/11/12 00:39:36;;;;;;;24.70;18.63;;;;;;;;;;5114725;28;20226;-67
2022/11/12 00:42:03;;;;;;;22.85;18.77;;;;;;;;;;5113902;28;20229;-68
2022/11/12 00:44:30;;;;;;;23.35;17.83;;;;;;;;;;5114147;28;20199;-68
2022/11/12 00:46:57;;;;;;;30.00;18.70;;;;;;;;;;5114063;28;20195;-68
2022/11/12 00:49:26;;;;;;;24.95;18.23;;;;;;;;;;5113824;28;20206;-68
2022/11/12 00:51:53;;;;;;;25.65;17.38;;;;;;;;;;5114005;28;20620;-68
2022/11/12 00:54:20;;;;;;;31.27;18.58;;;;;;;;;;5113744;28;20661;-67
2022/11/12 00:56:49;;;;;;;29.55;19.17;;;;;;;;;;5113956;28;20193;-68
2022/11/12 00:59:16;;;;;;;25.42;17.80;;;;;;;;;;5113647;28;20688;-68
2022/11/12 01:01:43;;;;;;;25.02;18.10;;;;;;;;;;5113549;28;20675;-68
2022/11/12 01:04:11;;;;;;;26.17;18.25;;;;;;;;;;5114439;28;20192;-68
2022/11/12 01:06:39;;;;;;;27.38;18.02;;;;;;;;;;5114307;28;20204;-68
2022/11/12 01:09:07;;;;;;;21.90;17.45;;;;;;;;;;5113995;28;20284;-68
2022/11/12 01:11:34;;;;;;;21.15;16.92;;;;;;;;;;5113412;28;20649;-68
2022/11/12 01:14:04;;;;;;;23.40;17.58;;;;;;;;;;5113540;28;20192;-68
2022/11/12 01:16:35;;;;;;;26.42;19.63;;;;;;;;;;5114561;28;20184;-69
2022/11/12 01:19:02;;;;;;;24.27;18.77;;;;;;;;;;5113687;28;20211;-68
2022/11/12 01:21:30;;;;;;;23.80;18.85;;;;;;;;;;5117668;28;20680;-68
2022/11/12 01:23:58;;;;;;;23.73;18.65;;;;;;;;;;5117745;28;20199;-68
2022/11/12 01:26:27;;;;;;;27.55;20.88;;;;;;;;;;5117675;28;20286;-67
2022/11/12 01:28:54;;;;;;;21.88;18.92;;;;;;;;;;5117872;28;20200;-68
2022/11/12 01:31:24;;;;;;;27.55;21.08;;;;;;;;;;5117796;28;20206;-67
2022/11/12 01:33:53;;;;;;;31.33;20.98;;;;;;;;;;5117685;28;20195;-68
2022/11/12 01:36:21;;;;;;;28.35;21.27;;;;;;;;;;5118256;28;20192;-68
2022/11/12 01:38:49;;;;;;;37.35;23.23;;;;;;;;;;5117574;28;20283;-68
2022/11/12 01:41:18;;;;;;;33.03;24.00;;;;;;;;;;5117347;28;20275;-67
2022/11/12 01:43:45;;;;;;;30.45;24.35;;;;;;;;;;5117635;28;20217;-67
2022/11/12 01:46:15;;;;;;;32.30;23.77;;;;;;;;;;5117543;28;20534;-68
2022/11/12 01:48:46;;;;;;;43.15;24.35;;;;;;;;;;5117103;28;20645;-68
2022/11/12 01:51:14;;;;;;;33.80;24.98;;;;;;;;;;5117188;28;20637;-68
2022/11/12 01:53:42;;;;;;;33.85;23.48;;;;;;;;;;5117349;28;20211;-68
2022/11/12 01:56:10;;;;;;;28.42;21.23;;;;;;;;;;5117359;28;20199;-67
2022/11/12 01:58:39;;;;;;;27.65;21.02;;;;;;;;;;5116946;28;20669;-68
2022/11/12 02:01:06;;;;;;;27.42;22.60;;;;;;;;;;5117353;28;20199;-67
2022/11/12 02:03:33;;;;;;;26.98;21.83;;;;;;;;;;5117158;28;20190;-68
2022/11/12 02:06:04;;;;;;;30.05;22.00;;;;;;;;;;5116837;28;20195;-67
2022/11/12 02:08:32;;;;;;;27.77;20.67;;;;;;;;;;5116778;28;20658;-68
2022/11/12 02:10:59;;;;;;;29.50;22.02;;;;;;;;;;5117073;28;20568;-67
2022/11/12 02:16:12;;;;;;;43.17;21.40;;;;;;;;;;5116999;28;20179;-67
2022/11/12 02:18:39;;;;;;;28.85;22.58;;;;;;;;;;5117078;28;20201;-68
2022/11/12 02:21:09;;;;;;;29.95;23.05;;;;;;;;;;5116538;28;20211;-68
2022/11/12 02:23:38;;;;;;;25.90;20.92;;;;;;;;;;5116816;28;20191;-68
2022/11/12 02:26:05;;;;;;;24.15;21.55;;;;;;;;;;5116585;28;20193;-68
2022/11/12 02:28:33;;;;;;;29.58;21.33;;;;;;;;;;5116801;28;20283;-68
2022/11/12 02:31:00;;;;;;;31.48;23.33;;;;;;;;;;5115715;28;20298;-67
2022/11/12 02:33:27;;;;;;;24.58;21.00;;;;;;;;;;5116578;28;20211;-68
2022/11/12 02:35:55;;;;;;;32.10;25.52;;;;;;;;;;5116310;28;20668;-68
2022/11/12 02:38:22;;;;;;;34.20;24.02;;;;;;;;;;5116596;28;20199;-68
2022/11/12 02:40:50;;;;;;;32.05;23.50;;;;;;;;;;5116795;28;20577;-67
2022/11/12 02:43:18;;;;;;;38.45;26.25;;;;;;;;;;5116210;28;20253;-68
2022/11/12 02:45:45;;;;;;;32.58;22.13;;;;;;;;;;5116576;28;20193;-67
2022/11/12 02:48:12;;;;;;;34.25;21.65;;;;;;;;;;5116362;28;20196;-68
2022/11/12 02:50:39;;;;;;;27.48;20.35;;;;;;;;;;5116717;28;20199;-67
2022/11/12 02:53:06;;;;;;;27.88;20.58;;;;;;;;;;5115949;28;20200;-68
2022/11/12 02:55:33;;;;;;;29.92;21.63;;;;;;;;;;5115929;28;20596;-68
2022/11/12 02:58:02;;;;;;;28.85;20.30;;;;;;;;;;5116285;28;20652;-68
2022/11/12 03:00:29;;;;;;;28.55;20.48;;;;;;;;;;5116111;28;20215;-67
2022/11/12 03:03:00;;;;;;;24.20;20.58;;;;;;;;;;5116212;28;20200;-68
2022/11/12 03:05:27;;;;;;;32.30;19.48;;;;;;;;;;5115845;28;20194;-68
2022/11/12 03:07:58;;;;;;;29.80;20.35;;;;;;;;;;5115953;28;20190;-69
2022/11/12 03:10:26;;;;;;;32.25;20.63;;;;;;;;;;5116241;28;20200;-67
2022/11/12 03:12:53;;;;;;;25.95;18.65;;;;;;;;;;5115534;28;20282;-67
2022/11/12 03:15:21;;;;;;;24.50;18.10;;;;;;;;;;5115852;28;20194;-68
2022/11/12 03:17:49;;;;;;;20.13;18.02;;;;;;;;;;5115512;28;20293;-68
2022/11/12 03:20:16;;;;;;;22.85;17.85;;;;;;;;;;5115246;28;20217;-68
2022/11/12 03:22:43;;;;;;;22.10;17.50;;;;;;;;;;5115686;28;20188;-68
2022/11/12 03:25:11;;;;;;;23.95;18.40;;;;;;;;;;5115634;28;20291;-68
2022/11/12 03:27:38;;;;;;;22.83;19.00;;;;;;;;;;5115689;28;20192;-68
2022/11/12 03:30:05;;;;;;;23.20;17.05;;;;;;;;;;5115472;28;20195;-68
2022/11/12 03:32:34;;;;;;;26.25;18.17;;;;;;;;;;5115108;28;20203;-68
2022/11/12 03:35:01;;;;;;;22.27;18.38;;;;;;;;;;5115490;28;20204;-67
2022/11/12 03:37:28;;;;;;;21.38;16.25;;;;;;;;;;5115402;28;20283;-67
2022/11/12 03:39:55;;;;;;;22.30;17.60;;;;;;;;;;5115168;28;20221;-67
2022/11/12 03:42:23;;;;;;;26.98;18.63;;;;;;;;;;5114474;28;20241;-67
2022/11/12 03:44:50;;;;;;;20.85;17.00;;;;;;;;;;5114865;28;20198;-67
2022/11/12 03:47:17;;;;;;;18.70;15.55;;;;;;;;;;5116019;28;20620;-67
2022/11/12 03:49:45;;;;;;;19.08;15.88;;;;;;;;;;5115164;28;20203;-68
2022/11/12 03:52:13;;;;;;;20.20;16.00;;;;;;;;;;5115662;28;20203;-67
2022/11/12 03:54:40;;;;;;;20.65;16.60;;;;;;;;;;5115068;28;20197;-68
2022/11/12 03:57:07;;;;;;;17.88;15.93;;;;;;;;;;5114714;28;20198;-68
2022/11/12 03:59:34;;;;;;;22.35;15.45;;;;;;;;;;5114820;28;20740;-68
2022/11/12 04:02:01;;;;;;;22.65;14.90;;;;;;;;;;5114955;28;20212;-67
2022/11/12 04:08:34;;;;;;;16.33;13.80;;;;;;;;;;5114864;28;20194;-68
2022/11/12 04:10:02;;;;;;;19.50;15.40;;;;;;;;;;5114413;28;20207;-68
2022/11/12 04:15:14;;;;;;;17.60;14.13;;;;;;;;;;5114597;28;20189;-68
2022/11/12 04:23:14;;;;;;;16.10;14.40;;;;;;;;;;5107135;28;20196;-67
2022/11/12 04:28:25;;;;;;;15.85;12.40;;;;;;;;;;5100226;28;20202;-67
2022/11/12 04:30:51;;;;;;;15.65;12.63;;;;;;;;;;5114417;28;20205;-67
2022/11/12 04:33:19;;;;;;;17.10;13.80;;;;;;;;;;5114054;28;20578;-67
2022/11/12 04:35:46;;;;;;;16.25;12.32;;;;;;;;;;5114408;28;20215;-68
2022/11/12 04:38:14;;;;;;;14.48;12.98;;;;;;;;;;5114323;28;20201;-67
2022/11/12 04:46:11;;;;;;;15.50;13.55;;;;;;;;;;5114016;28;20653;-67
2022/11/12 04:48:38;;;;;;;20.98;14.00;;;;;;;;;;5112968;28;20201;-68
2022/11/12 04:52:03;;;;;;;16.75;14.05;;;;;;;;;;5113141;28;20233;-67
2022/11/12 04:53:54;;;;;;;15.00;12.40;;;;;;;;;;5113225;28;20610;-68
2022/11/12 04:56:22;;;;;;;19.80;16.42;;;;;;;;;;5113819;28;20196;-67
2022/11/12 04:58:49;;;;;;;16.42;14.30;;;;;;;;;;5113889;28;20198;-67
2022/11/12 05:01:16;;;;;;;19.23;14.38;;;;;;;;;;5113644;28;20211;-67
2022/11/12 05:03:43;;;;;;;18.33;14.02;;;;;;;;;;5113967;28;20198;-67
2022/11/12 05:08:51;;;;;;;19.23;14.07;;;;;;;;;;5113331;28;20197;-67
2022/11/12 05:11:20;;;;;;;16.77;14.98;;;;;;;;;;5113635;28;20194;-67
2022/11/12 05:13:47;;;;;;;20.00;15.93;;;;;;;;;;5113866;28;20193;-67
2022/11/12 05:16:14;;;;;;;17.65;15.13;;;;;;;;;;5113915;28;20548;-67
2022/11/12 05:18:42;;;;;;;18.95;15.45;;;;;;;;;;5113599;28;20277;-67
2022/11/12 05:23:50;;;;;;;20.85;15.90;;;;;;;;;;5113259;28;20201;-67
2022/11/12 05:26:17;;;;;;;19.35;16.25;;;;;;;;;;5113652;28;20193;-68
2022/11/12 05:28:46;;;;;;;15.88;14.18;;;;;;;;;;5113684;28;20198;-67
2022/11/12 05:31:13;;;;;;;17.85;13.13;;;;;;;;;;5113795;28;20227;-67
2022/11/12 05:33:40;;;;;;;18.77;13.93;;;;;;;;;;5113789;28;20458;-67
2022/11/12 05:36:08;;;;;;;14.20;12.38;;;;;;;;;;5113257;28;20195;-67
2022/11/12 05:38:37;;;;;;;14.65;12.80;;;;;;;;;;5113614;28;20194;-67
2022/11/12 05:41:04;;;;;;;15.93;12.45;;;;;;;;;;5113432;28;20245;-67
2022/11/12 05:43:31;;;;;;;15.52;12.70;;;;;;;;;;5113898;28;20227;-67
2022/11/12 05:45:59;;;;;;;16.17;13.55;;;;;;;;;;5113490;28;20196;-67
2022/11/12 05:48:27;;;;;;;14.55;11.90;;;;;;;;;;5113086;28;20205;-68
2022/11/12 05:50:54;;;;;;;17.90;13.10;;;;;;;;;;5113108;28;20226;-66
2022/11/12 05:53:21;;;;;;;15.15;11.77;;;;;;;;;;5113162;28;20287;-66
2022/11/12 05:55:48;;;;;;;13.80;11.88;;;;;;;;;;5113438;28;20644;-67
2022/11/12 05:58:16;;;;;;;17.15;12.18;;;;;;;;;;5113146;28;20239;-67
2022/11/12 06:00:43;;;;;;;16.27;10.80;;;;;;;;;;5112751;28;20224;-67
2022/11/12 06:03:12;;;;;;;15.10;11.70;;;;;;;;;;5113084;28;20205;-67
2022/11/12 06:05:39;;;;;;;15.65;12.60;;;;;;;;;;5114657;28;20198;-67
2022/11/12 06:08:07;;;;;;;17.77;12.68;;;;;;;;;;5116847;28;20195;-66
2022/11/12 06:10:34;;;;;;;17.90;12.23;;;;;;;;;;5117060;28;20208;-67
2022/11/12 06:13:01;;;;;;;16.15;13.25;;;;;;;;;;5117364;28;20202;-67
2022/11/12 06:15:28;;;;;;;31.95;21.35;;;;;;;;;;5117680;28;20197;-67
2022/11/12 06:17:56;;;;;;;21.83;14.75;;;;;;;;;;5116464;28;20657;-67
2022/11/12 06:20:25;;;;;;;26.38;14.82;;;;;;;;;;5116481;28;20215;-68
2022/11/12 06:22:52;;;;;;;16.25;14.20;;;;;;;;;;5116874;28;20200;-67
2022/11/12 06:25:19;;;;;;;15.82;14.00;;;;;;;;;;5116967;28;20288;-67
2022/11/12 06:27:46;;;;;;;20.40;14.52;;;;;;;;;;5116795;28;20599;-67
2022/11/12 06:30:13;;;;;;;15.02;12.85;;;;;;;;;;5117156;28;20203;-67
2022/11/12 06:32:41;;;;;;;14.30;12.95;;;;;;;;;;5116643;28;20547;-67
2022/11/12 06:35:08;;;;;;;18.05;13.73;;;;;;;;;;5116390;28;20288;-67
2022/11/12 06:37:37;;;;;;;15.50;13.18;;;;;;;;;;5116527;28;20191;-67
2022/11/12 06:40:04;;;;;;;14.90;12.77;;;;;;;;;;5117085;28;20195;-66
2022/11/12 06:42:31;;;;;;;14.98;13.10;;;;;;;;;;5116024;28;20227;-68
2022/11/12 06:44:59;;;;;;;19.52;12.20;;;;;;;;;;5116851;28;20193;-67
2022/11/12 06:47:26;;;;;;;17.60;12.15;;;;;;;;;;5115964;28;20667;-67
2022/11/12 06:49:53;;;;;;;18.48;13.57;;;;;;;;;;5116387;28;20190;-66
2022/11/12 06:52:20;;;;;;;17.52;15.63;;;;;;;;;;5116261;28;20198;-67
2022/11/12 06:54:49;;;;;;;18.00;15.05;;;;;;;;;;5116332;28;20195;-67
2022/11/12 06:57:16;;;;;;;22.65;16.45;;;;;;;;;;5115867;28;20650;-67
2022/11/12 06:59:43;;;;;;;25.35;16.42;;;;;;;;;;5116709;28;20551;-67
2022/11/12 07:02:12;;;;;;;22.65;15.30;;;;;;;;;;5115992;28;20222;-67
2022/11/12 07:04:39;;;;;;;20.45;15.23;;;;;;;;;;5116732;28;20273;-67
2022/11/12 07:07:06;;;;;;;16.13;13.40;;;;;;;;;;5115635;28;20197;-67
2022/11/12 07:09:34;;;;;;;16.30;14.30;;;;;;;;;;5115718;28;20199;-68
2022/11/12 07:12:02;;;;;;;22.55;15.10;;;;;;;;;;5115788;28;20198;-67
2022/11/12 07:14:29;;;;;;;15.75;12.98;;;;;;;;;;5115678;28;20670;-68
2022/11/12 07:16:56;;;;;;;21.10;14.27;;;;;;;;;;5115048;28;20286;-67
2022/11/12 07:19:24;;;;;;;18.63;14.05;;;;;;;;;;5115896;28;20211;-68
2022/11/12 07:21:51;;;;;;;18.58;13.55;;;;;;;;;;5115352;28;20220;-68
2022/11/12 07:24:18;;;;;;;14.90;12.85;;;;;;;;;;5115382;28;20200;-67
2022/11/12 07:26:45;;;;;;;14.50;12.93;;;;;;;;;;5115844;28;20226;-68
2022/11/12 07:29:14;;;;;;;15.43;13.82;;;;;;;;;;5115628;28;20195;-68
2022/11/12 07:31:41;;;;;;;14.20;11.65;;;;;;;;;;5115803;28;20672;-68
2022/11/12 07:34:08;;;;;;;17.48;13.15;;;;;;;;;;5116538;28;20194;-66
2022/11/12 07:36:37;;;;;;;18.30;12.88;;;;;;;;;;5115725;28;20191;-67
2022/11/12 07:39:05;;;;;;;19.58;13.05;;;;;;;;;;5116031;28;20191;-67
2022/11/12 07:41:32;;;;;;;15.25;12.60;;;;;;;;;;5115053;28;20227;-67
2022/11/12 07:43:59;;;;;;;16.38;13.00;;;;;;;;;;5115432;28;20187;-67
2022/11/12 07:46:28;;;;;;;14.80;13.00;;;;;;;;;;5114987;28;20204;-67
2022/11/12 07:48:55;;;;;;;15.77;12.35;;;;;;;;;;5114887;28;20201;-67
2022/11/12 07:51:23;;;;;;;13.88;12.48;;;;;;;;;;5115563;28;20210;-68
2022/11/12 07:53:51;;;;;;;17.92;12.10;;;;;;;;;;5115108;28;20202;-67
2022/11/12 07:56:19;;;;;;;11.77;10.65;;;;;;;;;;5114954;28;20223;-68
2022/11/12 07:58:47;;;;;;;29.90;14.80;;;;;;;;;;5114722;28;20199;-67
2022/11/12 08:01:26;;;;;;;21.17;13.68;;;;;;;;;;5115069;28;20231;-67
2022/11/12 08:03:55;;;;;;;16.80;13.73;;;;;;;;;;5114939;28;20206;-68
2022/11/12 08:06:23;;;;;;;15.52;13.50;;;;;;;;;;5114900;28;20202;-67
2022/11/12 08:08:52;;;;;;;15.80;12.73;;;;;;;;;;5114493;28;20201;-68
2022/11/12 08:11:19;;;;;;;16.65;12.68;;;;;;;;;;5115299;28;20199;-67
2022/11/12 08:13:46;;;;;;;14.82;11.93;;;;;;;;;;5114655;28;20195;-67
2022/11/12 08:16:13;;;;;;;20.63;13.57;;;;;;;;;;5114743;28;20288;-67
2022/11/12 08:18:41;;;;;;;20.17;13.52;;;;;;;;;;5114665;28;20198;-67
2022/11/12 08:21:11;;;;;;;18.42;14.32;;;;;;;;;;5114272;28;20220;-67
2022/11/12 08:23:38;;;;;;;17.70;13.02;;;;;;;;;;5114041;28;20199;-67
2022/11/12 08:26:07;;;;;;;13.23;11.88;;;;;;;;;;5114860;28;20199;-68
2022/11/12 08:28:35;;;;;;;19.27;15.40;;;;;;;;;;5114380;28;20529;-67
2022/11/12 08:31:05;;;;;;;21.60;15.73;;;;;;;;;;5114497;28;20574;-67
2022/11/12 08:33:33;;;;;;;20.20;14.80;;;;;;;;;;5114064;28;20220;-67
2022/11/12 08:36:02;;;;;;;14.95;12.25;;;;;;;;;;5114238;28;20202;-69
2022/11/12 08:38:31;;;;;;;13.45;10.95;;;;;;;;;;5114225;28;20194;-67
2022/11/12 08:41:00;;;;;;;13.02;10.48;;;;;;;;;;5113758;28;20251;-67
2022/11/12 08:43:27;;;;;;;13.13;10.77;;;;;;;;;;5113910;28;20588;-67
2022/11/12 08:45:55;;;;;;;12.82;10.52;;;;;;;;;;5114287;28;20202;-67
2022/11/12 08:48:22;;;;;;;16.52;13.25;;;;;;;;;;5114133;28;20200;-67
2022/11/12 08:50:54;;;;;;;12.48;11.20;;;;;;;;;;5114121;28;20193;-67
2022/11/12 08:53:22;;;;;;;15.38;10.90;;;;;;;;;;5114015;28;20195;-68
2022/11/12 08:55:53;;;;;;;14.02;10.40;;;;;;;;;;5113642;28;20202;-68
2022/11/12 08:58:20;;;;;;;13.55;11.27;;;;;;;;;;5113604;28;20185;-70
2022/11/12 09:00:49;;;;;;;13.75;11.18;;;;;;;;;;5114541;28;20283;-68
2022/11/12 09:03:19;;;;;;;13.35;11.57;;;;;;;;;;5113541;28;20229;-68
2022/11/12 09:05:46;;;;;;;15.00;11.77;;;;;;;;;;5113669;28;20644;-67
2022/11/12 09:08:15;;;;;;;15.57;13.30;;;;;;;;;;5113871;28;20197;-70
2022/11/12 09:10:42;;;;;;;18.15;14.40;;;;;;;;;;5113642;28;20745;-69
2022/11/12 09:13:11;;;;;;;18.27;13.32;;;;;;;;;;5113235;28;20205;-67
2022/11/12 09:15:38;;;;;;;17.23;10.98;;;;;;;;;;5113519;28;20287;-67
2022/11/12 09:18:07;;;;;;;12.63;9.13;;;;;;;;;;5113692;28;20196;-68
2022/11/12 09:20:34;;;;;;;13.07;9.73;;;;;;;;;;5114172;28;20198;-67
2022/11/12 09:23:01;;;;;;;11.80;9.55;;;;;;;;;;5113156;28;20788;-67
2022/11/12 09:25:28;;;;;;;10.57;9.57;;;;;;;;;;5113408;28;20290;-67
2022/11/12 09:27:56;;;;;;;10.20;8.00;;;;;;;;;;5113584;28;20291;-68
2022/11/12 09:30:24;;;;;;;10.55;9.23;;;;;;;;;;5113288;28;20199;-68
2022/11/12 09:32:57;;;;;;;10.77;8.45;;;;;;;;;;5113532;28;20207;-68
2022/11/12 09:35:31;;;;;;;15.93;8.88;;;;;;;;;;5114070;28;20181;-67
2022/11/12 09:37:59;;;;;;;13.32;8.35;;;;;;;;;;5113424;28;20191;-68
2022/11/12 09:40:32;;;;;;;9.18;8.38;;;;;;;;;;5114440;28;20595;-67
2022/11/12 09:42:59;;;;;;;10.73;7.10;;;;;;;;;;5117890;28;20232;-68
2022/11/12 09:45:31;;;;;;;12.07;8.10;;;;;;;;;;5117208;28;20646;-69
2022/11/12 09:47:59;;;;;;;9.68;8.00;;;;;;;;;;5118122;28;20626;-68
2022/11/12 09:50:28;;;;;;;10.57;9.50;;;;;;;;;;5117137;28;20196;-68
2022/11/12 09:53:01;;;;;;;10.10;7.45;;;;;;;;;;5117164;28;20719;-68
2022/11/12 09:55:30;;;;;;;9.02;7.65;;;;;;;;;;5117111;28;20191;-68
2022/11/12 09:57:57;;;;;;;13.55;9.05;;;;;;;;;;5117274;28;20193;-69
2022/11/12 10:00:25;;;;;;;9.40;8.43;;;;;;;;;;5117241;28;20289;-67
2022/11/12 10:02:56;;;;;;;9.25;8.13;;;;;;;;;;5116909;28;20228;-68
2022/11/12 10:05:26;;;;;;;11.90;8.95;;;;;;;;;;5117320;28;20177;-67
2022/11/12 10:08:03;;;;;;;11.18;7.88;;;;;;;;;;5116846;28;20649;-69
2022/11/12 10:10:35;;;;;;;16.20;9.13;;;;;;;;;;5117207;28;20536;-67
2022/11/12 10:13:12;;;;;;;10.90;8.17;;;;;;;;;;5117626;28;20201;-67
2022/11/12 10:18:43;;;;;;;10.87;7.70;;;;;;;;;;5117209;28;20398;-68
2022/11/12 10:21:15;;;;;;;8.87;7.20;;;;;;;;;;5116440;28;20999;-67
2022/11/12 10:23:44;;;;;;;9.30;8.40;;;;;;;;;;5115999;28;20517;-68
2022/11/12 10:26:12;;;;;;;37.50;24.93;;;;;;;;;;5116851;28;20218;-67
2022/11/12 10:28:43;;;;;;;13.30;11.90;;;;;;;;;;5116934;28;20525;-68
2022/11/12 10:31:12;;;;;;;14.60;9.30;;;;;;;;;;5116931;28;20432;-67
2022/11/12 10:33:40;;;;;;;9.13;8.10;;;;;;;;;;5117113;28;20537;-68
2022/11/12 10:36:14;;;;;;;9.90;8.07;;;;;;;;;;5116618;28;20438;-68
2022/11/12 10:38:43;;;;;;;11.50;7.70;;;;;;;;;;5116346;28;20463;-67
2022/11/12 10:41:20;;;;;;;8.90;8.00;;;;;;;;;;5116047;28;20449;-68
2022/11/12 10:43:54;;;;;;;10.50;8.20;;;;;;;;;;5116606;28;20830;-67
2022/11/12 10:46:22;;;;;;;10.43;9.17;;;;;;;;;;5116570;28;20482;-68
2022/11/12 10:48:55;;;;;;;13.47;8.50;;;;;;;;;;5116434;28;20784;-68
2022/11/12 10:51:26;;;;;;;11.00;9.27;;;;;;;;;;5115396;28;20435;-68
2022/11/12 10:53:53;;;;;;;13.13;8.40;;;;;;;;;;5115870;28;20427;-68
2022/11/12 10:56:26;;;;;;;11.87;8.47;;;;;;;;;;5116112;28;20434;-67
2022/11/12 10:59:14;;;;;;;10.00;9.00;;;;;;;;;;5116207;28;20518;-67
2022/11/12 11:01:42;;;;;;;9.70;8.70;;;;;;;;;;5115872;28;20494;-68
2022/11/12 11:04:18;;;;;;;12.13;8.30;;;;;;;;;;5116227;28;20436;-68
2022/11/12 11:06:45;;;;;;;11.53;8.17;;;;;;;;;;5115859;28;20922;-67
2022/11/12 11:09:17;;;;;;;9.07;8.20;;;;;;;;;;5115697;28;20439;-68
2022/11/12 11:11:50;;;;;;;9.57;8.57;;;;;;;;;;5115566;28;20447;-68
2022/11/12 11:14:28;;;;;;;10.50;9.03;;;;;;;;;;5095239;28;20440;-68
2022/11/12 11:16:57;;;;;;;12.87;8.47;;;;;;;;;;5095470;28;20932;-66
2022/11/12 11:19:29;;;;;;;13.27;7.67;;;;;;;;;;5095474;28;20438;-67
2022/11/12 11:22:07;;;;;;;9.03;7.70;;;;;;;;;;5095585;28;20471;-67
2022/11/12 11:24:37;;;;;;;16.13;11.23;;;;;;;;;;5095380;28;20609;-67
2022/11/12 11:27:05;;;;;;;15.43;10.43;;;;;;;;;;5095728;28;20874;-67
2022/11/12 11:29:42;;;;;;;9.63;7.57;;;;;;;;;;5095134;28;20798;-71
2022/11/12 11:32:16;;;;;;;11.43;8.03;;;;;;;;;;5095001;28;20453;-67
2022/11/12 11:34:49;;;;;;;8.60;7.67;;;;;;;;;;5095179;28;20518;-67
2022/11/12 11:37:23;;;;;;;8.97;6.33;;;;;;;;;;5095152;28;20432;-67
2022/11/12 11:39:54;;;;;;;7.00;6.30;;;;;;;;;;5095410;28;20433;-68
2022/11/12 11:42:42;;;;;;;7.97;7.17;;;;;;;;;;5099500;28;20502;-68
2022/11/12 11:45:16;;;;;;;9.17;8.03;;;;;;;;;;5115751;28;20769;-67
2022/11/12 11:47:47;;;;;;;16.30;9.60;;;;;;;;;;5115029;28;20907;-68
2022/11/12 11:50:24;;;;;;;10.27;7.67;;;;;;;;;;5114758;28;20441;-68
2022/11/12 11:52:55;;;;;;;9.17;7.60;;;;;;;;;;5114824;28;20445;-67
2022/11/12 11:55:30;;;;;;;12.37;9.67;;;;;;;;;;5115151;28;20463;-68
2022/11/12 11:58:01;;;;;;;7.33;5.83;;;;;;;;;;5114805;28;20476;-67
2022/11/12 12:00:33;;;;;;;7.30;5.83;;;;;;;;;;5115330;28;20435;-67
2022/11/12 12:03:07;;;;;;;7.10;6.17;;;;;;;;;;5114803;28;20472;-67
2022/11/12 12:05:40;;;;;;;5.87;5.27;;;;;;;;;;5114852;28;20782;-67
2022/11/12 12:08:09;;;;;;;13.50;7.40;;;;;;;;;;5115000;28;20518;-68
2022/11/12 12:10:42;;;;;;;6.57;5.90;;;;;;;;;;5114504;28;20450;-67
2022/11/12 12:13:11;;;;;;;6.40;5.70;;;;;;;;;;5114954;28;20479;-67
2022/11/12 12:15:45;;;;;;;10.00;6.87;;;;;;;;;;5115087;28;20444;-67
2022/11/12 12:18:17;;;;;;;28.53;12.40;;;;;;;;;;5114955;28;20440;-67
2022/11/12 12:20:49;;;;;;;13.10;5.70;;;;;;;;;;5114276;28;20574;-67
2022/11/12 12:23:27;;;;;;;4.83;3.97;;;;;;;;;;5114791;28;20501;-67
2022/11/12 12:25:56;;;;;;;6.13;5.10;;;;;;;;;;5114003;28;20421;-67
2022/11/12 12:28:27;;;;;;;6.70;6.00;;;;;;;;;;5114185;28;20933;-67
2022/11/12 12:30:58;;;;;;;6.40;4.70;;;;;;;;;;5113904;28;20526;-68
2022/11/12 12:33:34;;;;;;;6.93;4.87;;;;;;;;;;5114332;28;20431;-67
2022/11/12 12:36:04;;;;;;;4.27;3.80;;;;;;;;;;5114364;28;20821;-67
2022/11/12 12:38:34;;;;;;;5.43;4.00;;;;;;;;;;5114850;28;20439;-67
2022/11/12 12:41:05;;;;;;;6.33;3.77;;;;;;;;;;5113982;28;20537;-67
2022/11/12 12:43:34;;;;;;;4.77;3.90;;;;;;;;;;5114310;28;20496;-67
2022/11/12 12:46:02;;;;;;;4.77;4.37;;;;;;;;;;5114031;28;20502;-67
2022/11/12 12:48:30;;;;;;;5.00;4.33;;;;;;;;;;5113890;28;20444;-68
2022/11/12 12:50:58;;;;;;;6.50;4.27;;;;;;;;;;5114426;28;20441;-67
2022/11/12 12:53:36;;;;;;;4.90;4.50;;;;;;;;;;5114310;28;20552;-67
2022/11/12 12:56:04;;;;;;;4.50;4.10;;;;;;;;;;5114087;28;20446;-67
2022/11/12 12:58:33;;;;;;;5.27;4.77;;;;;;;;;;5114261;28;20495;-67
2022/11/12 13:01:02;;;;;;;5.80;4.27;;;;;;;;;;5113937;28;20437;-67
2022/11/12 13:04:02;;;;;;;5.90;5.13;;;;;;;;;;5113543;28;20478;-67
2022/11/12 13:06:32;;;;;;;5.47;4.97;;;;;;;;;;5114411;28;20430;-67
2022/11/12 13:09:02;;;;;;;6.23;4.97;;;;;;;;;;5114184;28;20906;-67
2022/11/12 13:14:48;;;;;;;7.43;5.67;;;;;;;;;;5113238;28;20399;-67
2022/11/12 13:17:35;;;;;;;6.13;4.90;;;;;;;;;;5110646;28;20463;-67
2022/11/12 13:20:17;;;;;;;5.20;4.70;;;;;;;;;;5113600;28;20463;-67
2022/11/12 13:22:50;;;;;;;10.80;7.37;;;;;;;;;;5110619;28;20488;-67
2022/11/12 13:25:28;;;;;;;6.70;5.67;;;;;;;;;;5113613;28;20476;-67
2022/11/12 13:28:04;;;;;;;7.27;5.23;;;;;;;;;;5113279;28;20887;-67
2022/11/12 13:30:46;;;;;;;7.53;5.57;;;;;;;;;;5113629;28;20530;-67
2022/11/12 13:33:21;;;;;;;6.03;5.17;;;;;;;;;;5096371;28;20455;-67
2022/11/12 13:35:49;;;;;;;6.77;6.07;;;;;;;;;;5113771;28;20778;-67
2022/11/12 13:38:16;;;;;;;10.63;7.23;;;;;;;;;;5113402;28;20442;-67
2022/11/12 13:40:46;;;;;;;6.63;5.93;;;;;;;;;;5113456;28;20451;-67
2022/11/12 13:43:19;;;;;;;8.50;5.90;;;;;;;;;;5112895;28;20495;-67
2022/11/12 13:45:49;;;;;;;6.70;6.00;;;;;;;;;;5113630;28;20461;-67
2022/11/12 13:48:18;;;;;;;6.80;5.50;;;;;;;;;;5113287;28;20447;-67
2022/11/12 13:50:50;;;;;;;6.50;5.50;;;;;;;;;;5113141;28;20443;-67
2022/11/12 13:53:19;;;;;;;5.87;5.40;;;;;;;;;;5113212;28;20438;-67
2022/11/12 13:55:50;;;;;;;6.20;5.60;;;;;;;;;;5113545;28;20466;-67
2022/11/12 13:58:20;;;;;;;10.30;6.20;;;;;;;;;;5113274;28;20438;-67
2022/11/12 14:00:52;;;;;;;7.77;6.30;;;;;;;;;;5113692;28;20427;-67
2022/11/12 14:03:20;;;;;;;6.67;6.07;;;;;;;;;;5113280;28;20464;-67
2022/11/12 14:05:48;;;;;;;8.47;6.50;;;;;;;;;;5113306;28;20440;-67
2022/11/12 14:08:45;;;;;;;6.20;5.67;;;;;;;;;;5113460;28;20452;-66
2022/11/12 14:11:32;;;;;;;8.50;6.13;;;;;;;;;;5029992;28;20525;-67
2022/11/12 14:14:03;;;;;;;7.77;5.80;;;;;;;;;;5104428;28;20459;-68
2022/11/12 14:16:37;;;;;;;9.00;5.80;;;;;;;;;;5113014;28;20431;-68
2022/11/12 14:19:17;;;;;;;10.00;6.43;;;;;;;;;;5112853;28;20426;-69
2022/11/12 14:21:58;;;;;;;6.80;6.10;;;;;;;;;;5113690;28;20438;-67
2022/11/12 14:24:25;;;;;;;7.03;5.73;;;;;;;;;;5112783;28;20464;-67
2022/11/12 14:26:54;;;;;;;9.83;7.57;;;;;;;;;;5114649;28;20488;-67
2022/11/12 14:29:21;;;;;;;7.80;7.10;;;;;;;;;;5116459;28;20446;-67
2022/11/12 14:31:48;;;;;;;6.97;6.37;;;;;;;;;;5116281;28;20452;-67
2022/11/12 14:34:22;;;;;;;9.27;8.33;;;;;;;;;;5116346;28;20456;-67
2022/11/12 14:36:51;;;;;;;9.20;8.30;;;;;;;;;;5116305;28;20442;-68
2022/11/12 14:39:18;;;;;;;7.73;6.90;;;;;;;;;;5116196;28;20959;-67
2022/11/12 14:41:48;;;;;;;7.00;6.30;;;;;;;;;;5116341;28;20464;-67
2022/11/12 14:44:18;;;;;;;8.10;6.57;;;;;;;;;;5115992;28;20555;-67
2022/11/12 14:46:47;;;;;;;12.00;9.77;;;;;;;;;;5116831;28;20432;-69
2022/11/12 14:49:17;;;;;;;35.10;22.93;;;;;;;;;;5116288;28;20447;-67
2022/11/12 14:51:47;;;;;;;14.00;10.17;;;;;;;;;;5116246;28;20428;-68
2022/11/12 14:54:16;;;;;;;8.10;7.40;;;;;;;;;;5116435;28;20448;-68
2022/11/12 14:56:46;;;;;;;9.77;7.87;;;;;;;;;;5116361;28;20439;-68
2022/11/12 14:59:14;;;;;;;7.67;6.87;;;;;;;;;;5115745;28;20445;-67
2022/11/12 15:02:03;;;;;;;11.03;6.67;;;;;;;;;;5116082;28;20444;-68
2022/11/12 15:04:36;;;;;;;7.30;6.60;;;;;;;;;;5116066;27;20471;-67
2022/11/12 15:07:04;;;;;;;10.17;7.30;;;;;;;;;;5115751;28;21037;-67
2022/11/12 15:09:35;;;;;;;9.67;6.90;;;;;;;;;;5115570;28;20444;-67
2022/11/12 15:12:03;;;;;;;7.93;6.60;;;;;;;;;;5115837;28;20500;-67